sensor_id;sensor_type;location;lat;lon;timestamp;P1;durP1;ratioP1;P2;durP2;ratioP2
76310;SDS011;65120;59.304;18.294;2023-07-16T00:01:13;3.22;;;0.60;;
76310;SDS011;65120;59.304;18.294;2023-07-16T00:03:40;1.55;;;0.30;;
76310;SDS011;65120;59.304;18.294;2023-07-16T00:06:08;1.40;;;0.38;;
76310;SDS011;65120;59.304;18.294;2023-07-16T00:08:36;2.20;;;0.40;;
76310;SDS011;65120;59.304;18.294;2023-07-16T00:11:03;1.38;;;0.40;;
76310;SDS011;65120;59.304;18.294;2023-07-16T00:13:30;0.63;;;0.30;;
76310;SDS011;65120;59.304;18.294;2023-07-16T00:15:57;1.20;;;0.30;;
76310;SDS011;65120;59.304;18.294;2023-07-16T00:18:24;0.93;;;0.30;;
76310;SDS011;65120;59.304;18.294;2023-07-16T00:20:51;1.98;;;0.30;;
76310;SDS011;65120;59.304;18.294;2023-07-16T00:23:18;2.30;;;0.30;;
76310;SDS011;65120;59.304;18.294;2023-07-16T00:25:46;4.38;;;0.60;;
76310;SDS011;65120;59.304;18.294;2023-07-16T00:28:13;3.53;;;0.50;;
76310;SDS011;65120;59.304;18.294;2023-07-16T00:30:40;1.73;;;0.40;;
76310;SDS011;65120;59.304;18.294;2023-07-16T00:33:07;3.78;;;0.50;;
76310;SDS011;65120;59.304;18.294;2023-07-16T00:35:34;1.20;;;0.30;;
76310;SDS011;65120;59.304;18.294;2023-07-16T00:38:00;0.30;;;0.30;;
76310;SDS011;65120;59.304;18.294;2023-07-16T00:40:27;9.05;;;0.40;;
76310;SDS011;65120;59.304;18.294;2023-07-16T00:42:56;0.88;;;0.40;;
76310;SDS011;65120;59.304;18.294;2023-07-16T00:45:23;1.20;;;0.30;;
76310;SDS011;65120;59.304;18.294;2023-07-16T00:47:50;1.30;;;0.40;;
76310;SDS011;65120;59.304;18.294;2023-07-16T00:50:17;1.55;;;0.60;;
76310;SDS011;65120;59.304;18.294;2023-07-16T00:52:44;3.58;;;1.05;;
76310;SDS011;65120;59.304;18.294;2023-07-16T00:55:12;1.00;;;0.30;;
76310;SDS011;65120;59.304;18.294;2023-07-16T00:57:39;1.95;;;0.30;;
76310;SDS011;65120;59.304;18.294;2023-07-16T01:00:08;1.10;;;0.30;;
76310;SDS011;65120;59.304;18.294;2023-07-16T01:02:36;1.40;;;0.40;;
76310;SDS011;65120;59.304;18.294;2023-07-16T01:05:03;1.83;;;0.57;;
76310;SDS011;65120;59.304;18.294;2023-07-16T01:07:31;1.08;;;0.40;;
76310;SDS011;65120;59.304;18.294;2023-07-16T01:09:59;1.75;;;0.40;;
76310;SDS011;65120;59.304;18.294;2023-07-16T01:12:27;2.38;;;0.40;;
76310;SDS011;65120;59.304;18.294;2023-07-16T01:14:55;2.70;;;0.30;;
76310;SDS011;65120;59.304;18.294;2023-07-16T01:17:25;1.52;;;0.30;;
76310;SDS011;65120;59.304;18.294;2023-07-16T01:19:51;1.95;;;0.40;;
76310;SDS011;65120;59.304;18.294;2023-07-16T01:22:26;1.00;;;0.30;;
76310;SDS011;65120;59.304;18.294;2023-07-16T01:25:09;1.27;;;0.30;;
76310;SDS011;65120;59.304;18.294;2023-07-16T01:30:48;4.47;;;0.50;;
76310;SDS011;65120;59.304;18.294;2023-07-16T01:33:18;3.75;;;0.52;;
76310;SDS011;65120;59.304;18.294;2023-07-16T01:35:46;2.22;;;0.30;;
76310;SDS011;65120;59.304;18.294;2023-07-16T01:38:14;0.90;;;0.30;;
76310;SDS011;65120;59.304;18.294;2023-07-16T01:40:44;1.65;;;0.30;;
76310;SDS011;65120;59.304;18.294;2023-07-16T01:43:11;1.55;;;0.55;;
76310;SDS011;65120;59.304;18.294;2023-07-16T01:45:38;3.22;;;0.40;;
76310;SDS011;65120;59.304;18.294;2023-07-16T01:48:09;3.88;;;0.65;;
76310;SDS011;65120;59.304;18.294;2023-07-16T01:50:43;2.50;;;0.47;;
76310;SDS011;65120;59.304;18.294;2023-07-16T01:53:10;1.55;;;0.50;;
76310;SDS011;65120;59.304;18.294;2023-07-16T01:55:37;1.33;;;0.25;;
76310;SDS011;65120;59.304;18.294;2023-07-16T01:58:04;1.20;;;0.40;;
76310;SDS011;65120;59.304;18.294;2023-07-16T02:00:31;2.25;;;0.30;;
76310;SDS011;65120;59.304;18.294;2023-07-16T02:02:58;0.68;;;0.30;;
76310;SDS011;65120;59.304;18.294;2023-07-16T02:05:26;3.55;;;0.40;;
76310;SDS011;65120;59.304;18.294;2023-07-16T02:07:53;3.92;;;0.30;;
76310;SDS011;65120;59.304;18.294;2023-07-16T02:10:20;1.50;;;0.40;;
76310;SDS011;65120;59.304;18.294;2023-07-16T02:12:47;3.80;;;0.30;;
76310;SDS011;65120;59.304;18.294;2023-07-16T02:15:14;1.98;;;0.40;;
76310;SDS011;65120;59.304;18.294;2023-07-16T02:17:43;2.50;;;0.45;;
76310;SDS011;65120;59.304;18.294;2023-07-16T02:20:10;3.10;;;0.30;;
76310;SDS011;65120;59.304;18.294;2023-07-16T02:22:38;4.95;;;0.55;;
76310;SDS011;65120;59.304;18.294;2023-07-16T02:25:06;2.30;;;0.40;;
76310;SDS011;65120;59.304;18.294;2023-07-16T02:27:33;1.38;;;0.32;;
76310;SDS011;65120;59.304;18.294;2023-07-16T02:30:00;1.23;;;0.50;;
76310;SDS011;65120;59.304;18.294;2023-07-16T02:32:27;4.40;;;0.45;;
76310;SDS011;65120;59.304;18.294;2023-07-16T02:34:54;1.88;;;0.40;;
76310;SDS011;65120;59.304;18.294;2023-07-16T02:37:21;2.25;;;0.30;;
76310;SDS011;65120;59.304;18.294;2023-07-16T02:39:49;1.02;;;0.30;;
76310;SDS011;65120;59.304;18.294;2023-07-16T02:42:16;1.58;;;0.40;;
76310;SDS011;65120;59.304;18.294;2023-07-16T02:44:43;1.35;;;0.35;;
76310;SDS011;65120;59.304;18.294;2023-07-16T02:47:10;0.63;;;0.40;;
76310;SDS011;65120;59.304;18.294;2023-07-16T02:49:37;2.60;;;0.30;;
76310;SDS011;65120;59.304;18.294;2023-07-16T02:52:04;1.70;;;0.50;;
76310;SDS011;65120;59.304;18.294;2023-07-16T02:54:31;3.15;;;0.40;;
76310;SDS011;65120;59.304;18.294;2023-07-16T02:57:00;1.88;;;0.95;;
76310;SDS011;65120;59.304;18.294;2023-07-16T02:59:27;1.17;;;0.35;;
76310;SDS011;65120;59.304;18.294;2023-07-16T03:01:54;1.75;;;0.68;;
76310;SDS011;65120;59.304;18.294;2023-07-16T03:04:21;1.50;;;0.30;;
76310;SDS011;65120;59.304;18.294;2023-07-16T03:06:47;2.80;;;0.30;;
76310;SDS011;65120;59.304;18.294;2023-07-16T03:09:14;2.78;;;0.40;;
76310;SDS011;65120;59.304;18.294;2023-07-16T03:11:41;0.70;;;0.40;;
76310;SDS011;65120;59.304;18.294;2023-07-16T03:14:09;2.83;;;0.60;;
76310;SDS011;65120;59.304;18.294;2023-07-16T03:16:36;0.88;;;0.40;;
76310;SDS011;65120;59.304;18.294;2023-07-16T03:19:03;2.33;;;0.47;;
76310;SDS011;65120;59.304;18.294;2023-07-16T03:21:31;3.30;;;0.60;;
76310;SDS011;65120;59.304;18.294;2023-07-16T03:23:58;1.42;;;0.60;;
76310;SDS011;65120;59.304;18.294;2023-07-16T03:26:25;2.17;;;0.68;;
76310;SDS011;65120;59.304;18.294;2023-07-16T03:28:51;2.72;;;0.40;;
76310;SDS011;65120;59.304;18.294;2023-07-16T03:31:20;1.70;;;0.52;;
76310;SDS011;65120;59.304;18.294;2023-07-16T03:33:47;1.27;;;0.40;;
76310;SDS011;65120;59.304;18.294;2023-07-16T03:36:14;2.67;;;0.50;;
76310;SDS011;65120;59.304;18.294;2023-07-16T03:38:40;1.13;;;0.35;;
76310;SDS011;65120;59.304;18.294;2023-07-16T03:41:07;1.35;;;0.40;;
76310;SDS011;65120;59.304;18.294;2023-07-16T03:43:34;2.15;;;0.50;;
76310;SDS011;65120;59.304;18.294;2023-07-16T03:46:01;3.55;;;0.50;;
76310;SDS011;65120;59.304;18.294;2023-07-16T03:48:29;1.92;;;0.80;;
76310;SDS011;65120;59.304;18.294;2023-07-16T03:50:56;0.68;;;0.40;;
76310;SDS011;65120;59.304;18.294;2023-07-16T03:53:23;3.53;;;0.98;;
76310;SDS011;65120;59.304;18.294;2023-07-16T03:55:50;1.35;;;0.70;;
76310;SDS011;65120;59.304;18.294;2023-07-16T03:58:17;5.07;;;0.60;;
76310;SDS011;65120;59.304;18.294;2023-07-16T04:00:44;3.55;;;0.50;;
76310;SDS011;65120;59.304;18.294;2023-07-16T04:03:10;2.92;;;1.05;;
76310;SDS011;65120;59.304;18.294;2023-07-16T04:05:39;3.80;;;0.93;;
76310;SDS011;65120;59.304;18.294;2023-07-16T04:08:06;2.17;;;0.50;;
76310;SDS011;65120;59.304;18.294;2023-07-16T04:10:33;3.28;;;0.50;;
76310;SDS011;65120;59.304;18.294;2023-07-16T04:13:00;5.45;;;0.57;;
76310;SDS011;65120;59.304;18.294;2023-07-16T04:15:28;3.55;;;0.60;;
76310;SDS011;65120;59.304;18.294;2023-07-16T04:17:55;4.20;;;0.60;;
76310;SDS011;65120;59.304;18.294;2023-07-16T04:20:21;2.10;;;0.60;;
76310;SDS011;65120;59.304;18.294;2023-07-16T04:22:50;4.10;;;0.75;;
76310;SDS011;65120;59.304;18.294;2023-07-16T04:25:17;2.88;;;0.80;;
76310;SDS011;65120;59.304;18.294;2023-07-16T04:27:44;1.60;;;0.70;;
76310;SDS011;65120;59.304;18.294;2023-07-16T04:30:11;2.78;;;0.70;;
76310;SDS011;65120;59.304;18.294;2023-07-16T04:32:38;6.07;;;0.80;;
76310;SDS011;65120;59.304;18.294;2023-07-16T04:35:05;3.00;;;0.73;;
76310;SDS011;65120;59.304;18.294;2023-07-16T04:37:32;5.05;;;0.88;;
76310;SDS011;65120;59.304;18.294;2023-07-16T04:40:01;5.78;;;1.05;;
76310;SDS011;65120;59.304;18.294;2023-07-16T04:42:29;4.82;;;0.70;;
76310;SDS011;65120;59.304;18.294;2023-07-16T04:44:56;5.45;;;1.00;;
76310;SDS011;65120;59.304;18.294;2023-07-16T04:47:23;4.05;;;0.77;;
76310;SDS011;65120;59.304;18.294;2023-07-16T04:49:50;2.75;;;0.80;;
76310;SDS011;65120;59.304;18.294;2023-07-16T04:52:17;4.03;;;0.68;;
76310;SDS011;65120;59.304;18.294;2023-07-16T04:54:44;3.45;;;0.80;;
76310;SDS011;65120;59.304;18.294;2023-07-16T04:57:12;3.38;;;1.00;;
76310;SDS011;65120;59.304;18.294;2023-07-16T04:59:39;4.93;;;1.17;;
76310;SDS011;65120;59.304;18.294;2023-07-16T05:02:06;6.32;;;0.77;;
76310;SDS011;65120;59.304;18.294;2023-07-16T05:04:33;6.60;;;1.02;;
76310;SDS011;65120;59.304;18.294;2023-07-16T05:07:00;2.33;;;0.80;;
76310;SDS011;65120;59.304;18.294;2023-07-16T05:09:28;6.90;;;1.52;;
76310;SDS011;65120;59.304;18.294;2023-07-16T05:11:55;3.20;;;0.88;;
76310;SDS011;65120;59.304;18.294;2023-07-16T05:14:25;4.88;;;1.20;;
76310;SDS011;65120;59.304;18.294;2023-07-16T05:16:54;2.38;;;0.88;;
76310;SDS011;65120;59.304;18.294;2023-07-16T05:19:21;5.43;;;1.17;;
76310;SDS011;65120;59.304;18.294;2023-07-16T05:21:48;3.50;;;1.02;;
76310;SDS011;65120;59.304;18.294;2023-07-16T05:24:15;3.22;;;0.80;;
76310;SDS011;65120;59.304;18.294;2023-07-16T05:26:42;2.10;;;0.70;;
76310;SDS011;65120;59.304;18.294;2023-07-16T05:29:09;1.48;;;0.60;;
76310;SDS011;65120;59.304;18.294;2023-07-16T05:31:37;6.20;;;0.93;;
76310;SDS011;65120;59.304;18.294;2023-07-16T05:34:04;5.75;;;1.33;;
76310;SDS011;65120;59.304;18.294;2023-07-16T05:36:32;6.78;;;1.20;;
76310;SDS011;65120;59.304;18.294;2023-07-16T05:38:59;4.10;;;1.20;;
76310;SDS011;65120;59.304;18.294;2023-07-16T05:41:26;3.47;;;1.00;;
76310;SDS011;65120;59.304;18.294;2023-07-16T05:43:53;3.42;;;0.70;;
76310;SDS011;65120;59.304;18.294;2023-07-16T05:46:20;4.18;;;1.25;;
76310;SDS011;65120;59.304;18.294;2023-07-16T05:48:48;6.40;;;0.95;;
76310;SDS011;65120;59.304;18.294;2023-07-16T05:51:15;3.35;;;0.73;;
76310;SDS011;65120;59.304;18.294;2023-07-16T05:53:42;6.22;;;0.90;;
76310;SDS011;65120;59.304;18.294;2023-07-16T05:56:09;8.10;;;1.00;;
76310;SDS011;65120;59.304;18.294;2023-07-16T05:58:36;3.20;;;1.02;;
76310;SDS011;65120;59.304;18.294;2023-07-16T06:01:02;7.75;;;0.90;;
76310;SDS011;65120;59.304;18.294;2023-07-16T06:03:29;3.22;;;1.05;;
76310;SDS011;65120;59.304;18.294;2023-07-16T06:05:58;3.90;;;0.80;;
76310;SDS011;65120;59.304;18.294;2023-07-16T06:08:24;3.70;;;1.27;;
76310;SDS011;65120;59.304;18.294;2023-07-16T06:10:51;3.33;;;0.82;;
76310;SDS011;65120;59.304;18.294;2023-07-16T06:13:18;3.95;;;0.90;;
76310;SDS011;65120;59.304;18.294;2023-07-16T06:15:45;4.55;;;1.05;;
76310;SDS011;65120;59.304;18.294;2023-07-16T06:18:13;5.93;;;1.00;;
76310;SDS011;65120;59.304;18.294;2023-07-16T06:20:42;5.55;;;0.80;;
76310;SDS011;65120;59.304;18.294;2023-07-16T06:23:11;3.13;;;0.93;;
76310;SDS011;65120;59.304;18.294;2023-07-16T06:25:38;2.58;;;0.93;;
76310;SDS011;65120;59.304;18.294;2023-07-16T06:28:09;6.68;;;0.90;;
76310;SDS011;65120;59.304;18.294;2023-07-16T06:30:36;2.17;;;0.98;;
76310;SDS011;65120;59.304;18.294;2023-07-16T06:33:04;3.10;;;0.90;;
76310;SDS011;65120;59.304;18.294;2023-07-16T06:35:31;6.22;;;0.82;;
76310;SDS011;65120;59.304;18.294;2023-07-16T06:37:58;3.53;;;0.77;;
76310;SDS011;65120;59.304;18.294;2023-07-16T06:40:26;2.80;;;0.80;;
76310;SDS011;65120;59.304;18.294;2023-07-16T06:42:55;7.45;;;1.00;;
76310;SDS011;65120;59.304;18.294;2023-07-16T06:45:22;6.28;;;1.63;;
76310;SDS011;65120;59.304;18.294;2023-07-16T06:47:48;2.90;;;0.80;;
76310;SDS011;65120;59.304;18.294;2023-07-16T06:50:15;7.32;;;0.80;;
76310;SDS011;65120;59.304;18.294;2023-07-16T06:52:42;4.00;;;1.05;;
76310;SDS011;65120;59.304;18.294;2023-07-16T06:55:09;4.05;;;0.80;;
76310;SDS011;65120;59.304;18.294;2023-07-16T06:57:38;5.60;;;0.85;;
76310;SDS011;65120;59.304;18.294;2023-07-16T07:00:06;5.55;;;0.90;;
76310;SDS011;65120;59.304;18.294;2023-07-16T07:02:36;4.18;;;0.98;;
76310;SDS011;65120;59.304;18.294;2023-07-16T07:05:03;5.68;;;0.95;;
76310;SDS011;65120;59.304;18.294;2023-07-16T07:07:30;3.25;;;0.80;;
76310;SDS011;65120;59.304;18.294;2023-07-16T07:09:56;5.00;;;1.25;;
76310;SDS011;65120;59.304;18.294;2023-07-16T07:12:23;6.32;;;1.80;;
76310;SDS011;65120;59.304;18.294;2023-07-16T07:14:52;4.30;;;0.95;;
76310;SDS011;65120;59.304;18.294;2023-07-16T07:17:18;6.28;;;0.90;;
76310;SDS011;65120;59.304;18.294;2023-07-16T07:19:45;7.03;;;0.93;;
76310;SDS011;65120;59.304;18.294;2023-07-16T07:22:12;4.80;;;1.30;;
76310;SDS011;65120;59.304;18.294;2023-07-16T07:24:39;2.13;;;1.20;;
76310;SDS011;65120;59.304;18.294;2023-07-16T07:27:06;5.13;;;1.30;;
76310;SDS011;65120;59.304;18.294;2023-07-16T07:29:33;10.75;;;1.00;;
76310;SDS011;65120;59.304;18.294;2023-07-16T07:32:01;3.97;;;1.23;;
76310;SDS011;65120;59.304;18.294;2023-07-16T07:34:28;4.45;;;1.20;;
76310;SDS011;65120;59.304;18.294;2023-07-16T07:36:55;4.78;;;0.82;;
76310;SDS011;65120;59.304;18.294;2023-07-16T07:39:22;3.17;;;0.70;;
76310;SDS011;65120;59.304;18.294;2023-07-16T07:41:49;5.40;;;1.13;;
76310;SDS011;65120;59.304;18.294;2023-07-16T07:44:16;6.25;;;1.10;;
76310;SDS011;65120;59.304;18.294;2023-07-16T07:46:43;5.63;;;1.02;;
76310;SDS011;65120;59.304;18.294;2023-07-16T07:49:11;6.07;;;1.67;;
76310;SDS011;65120;59.304;18.294;2023-07-16T07:51:38;5.78;;;1.55;;
76310;SDS011;65120;59.304;18.294;2023-07-16T07:54:05;9.55;;;2.35;;
76310;SDS011;65120;59.304;18.294;2023-07-16T07:56:32;5.85;;;1.15;;
76310;SDS011;65120;59.304;18.294;2023-07-16T07:58:59;3.28;;;1.20;;
76310;SDS011;65120;59.304;18.294;2023-07-16T08:01:26;4.65;;;1.15;;
76310;SDS011;65120;59.304;18.294;2023-07-16T08:03:54;4.32;;;1.17;;
76310;SDS011;65120;59.304;18.294;2023-07-16T08:06:23;2.63;;;1.00;;
76310;SDS011;65120;59.304;18.294;2023-07-16T08:08:49;3.15;;;1.17;;
76310;SDS011;65120;59.304;18.294;2023-07-16T08:11:16;3.05;;;1.30;;
76310;SDS011;65120;59.304;18.294;2023-07-16T08:13:43;5.45;;;1.40;;
76310;SDS011;65120;59.304;18.294;2023-07-16T08:16:10;3.78;;;2.03;;
76310;SDS011;65120;59.304;18.294;2023-07-16T08:18:37;4.57;;;1.05;;
76310;SDS011;65120;59.304;18.294;2023-07-16T08:21:04;4.00;;;1.20;;
76310;SDS011;65120;59.304;18.294;2023-07-16T08:23:32;5.88;;;1.08;;
76310;SDS011;65120;59.304;18.294;2023-07-16T08:25:59;4.38;;;1.15;;
76310;SDS011;65120;59.304;18.294;2023-07-16T08:28:26;5.15;;;1.55;;
76310;SDS011;65120;59.304;18.294;2023-07-16T08:30:53;6.55;;;1.35;;
76310;SDS011;65120;59.304;18.294;2023-07-16T08:33:20;4.43;;;1.58;;
76310;SDS011;65120;59.304;18.294;2023-07-16T08:35:47;1.42;;;0.82;;
76310;SDS011;65120;59.304;18.294;2023-07-16T08:38:13;6.38;;;1.45;;
76310;SDS011;65120;59.304;18.294;2023-07-16T08:40:42;6.55;;;2.03;;
76310;SDS011;65120;59.304;18.294;2023-07-16T08:43:13;5.90;;;1.30;;
76310;SDS011;65120;59.304;18.294;2023-07-16T08:45:42;5.13;;;1.50;;
76310;SDS011;65120;59.304;18.294;2023-07-16T08:48:11;8.73;;;2.00;;
76310;SDS011;65120;59.304;18.294;2023-07-16T08:50:38;8.50;;;1.70;;
76310;SDS011;65120;59.304;18.294;2023-07-16T08:53:08;6.78;;;1.48;;
76310;SDS011;65120;59.304;18.294;2023-07-16T08:55:35;10.27;;;1.88;;
76310;SDS011;65120;59.304;18.294;2023-07-16T08:58:05;3.88;;;1.80;;
76310;SDS011;65120;59.304;18.294;2023-07-16T09:00:32;5.25;;;1.52;;
76310;SDS011;65120;59.304;18.294;2023-07-16T09:03:00;6.90;;;1.92;;
76310;SDS011;65120;59.304;18.294;2023-07-16T09:05:28;11.10;;;1.98;;
76310;SDS011;65120;59.304;18.294;2023-07-16T09:07:55;5.38;;;1.80;;
76310;SDS011;65120;59.304;18.294;2023-07-16T09:10:22;6.28;;;2.30;;
76310;SDS011;65120;59.304;18.294;2023-07-16T09:12:49;6.90;;;1.73;;
76310;SDS011;65120;59.304;18.294;2023-07-16T09:15:18;5.63;;;2.33;;
76310;SDS011;65120;59.304;18.294;2023-07-16T09:17:46;7.50;;;1.90;;
76310;SDS011;65120;59.304;18.294;2023-07-16T09:20:14;8.85;;;1.80;;
76310;SDS011;65120;59.304;18.294;2023-07-16T09:22:41;6.65;;;2.13;;
76310;SDS011;65120;59.304;18.294;2023-07-16T09:25:08;8.38;;;2.20;;
76310;SDS011;65120;59.304;18.294;2023-07-16T09:27:36;4.97;;;2.03;;
76310;SDS011;65120;59.304;18.294;2023-07-16T09:30:03;9.85;;;3.53;;
76310;SDS011;65120;59.304;18.294;2023-07-16T09:32:35;4.90;;;2.40;;
76310;SDS011;65120;59.304;18.294;2023-07-16T09:35:06;5.00;;;2.58;;
76310;SDS011;65120;59.304;18.294;2023-07-16T09:37:33;4.00;;;1.92;;
76310;SDS011;65120;59.304;18.294;2023-07-16T09:40:03;8.57;;;2.17;;
76310;SDS011;65120;59.304;18.294;2023-07-16T09:42:34;3.70;;;1.83;;
76310;SDS011;65120;59.304;18.294;2023-07-16T09:45:05;9.95;;;2.10;;
76310;SDS011;65120;59.304;18.294;2023-07-16T09:47:35;8.07;;;2.83;;
76310;SDS011;65120;59.304;18.294;2023-07-16T09:50:02;6.85;;;2.00;;
76310;SDS011;65120;59.304;18.294;2023-07-16T09:52:30;5.47;;;1.75;;
76310;SDS011;65120;59.304;18.294;2023-07-16T09:54:58;7.20;;;2.55;;
76310;SDS011;65120;59.304;18.294;2023-07-16T09:57:28;5.82;;;2.13;;
76310;SDS011;65120;59.304;18.294;2023-07-16T09:59:59;7.47;;;2.78;;
76310;SDS011;65120;59.304;18.294;2023-07-16T10:02:30;9.40;;;2.90;;
76310;SDS011;65120;59.304;18.294;2023-07-16T10:05:02;3.22;;;1.65;;
76310;SDS011;65120;59.304;18.294;2023-07-16T10:07:38;8.05;;;2.80;;
76310;SDS011;65120;59.304;18.294;2023-07-16T10:10:07;11.05;;;2.45;;
76310;SDS011;65120;59.304;18.294;2023-07-16T10:12:35;6.82;;;2.25;;
76310;SDS011;65120;59.304;18.294;2023-07-16T10:15:03;8.10;;;2.33;;
76310;SDS011;65120;59.304;18.294;2023-07-16T10:17:31;5.50;;;2.30;;
76310;SDS011;65120;59.304;18.294;2023-07-16T10:20:01;6.43;;;2.08;;
76310;SDS011;65120;59.304;18.294;2023-07-16T10:22:36;4.13;;;2.88;;
76310;SDS011;65120;59.304;18.294;2023-07-16T10:25:07;6.53;;;3.08;;
76310;SDS011;65120;59.304;18.294;2023-07-16T10:27:35;3.72;;;2.40;;
76310;SDS011;65120;59.304;18.294;2023-07-16T10:30:03;4.90;;;2.38;;
76310;SDS011;65120;59.304;18.294;2023-07-16T10:32:31;5.20;;;2.33;;
76310;SDS011;65120;59.304;18.294;2023-07-16T10:35:01;6.55;;;1.88;;
76310;SDS011;65120;59.304;18.294;2023-07-16T10:37:29;5.03;;;2.85;;
76310;SDS011;65120;59.304;18.294;2023-07-16T10:39:57;6.25;;;1.90;;
76310;SDS011;65120;59.304;18.294;2023-07-16T10:42:25;5.40;;;2.67;;
76310;SDS011;65120;59.304;18.294;2023-07-16T10:44:53;4.45;;;1.55;;
76310;SDS011;65120;59.304;18.294;2023-07-16T10:47:22;3.95;;;1.98;;
76310;SDS011;65120;59.304;18.294;2023-07-16T10:49:50;5.40;;;1.27;;
76310;SDS011;65120;59.304;18.294;2023-07-16T10:52:21;6.80;;;2.15;;
76310;SDS011;65120;59.304;18.294;2023-07-16T10:54:48;2.47;;;1.48;;
76310;SDS011;65120;59.304;18.294;2023-07-16T10:57:19;2.92;;;1.45;;
76310;SDS011;65120;59.304;18.294;2023-07-16T10:59:47;5.78;;;1.60;;
76310;SDS011;65120;59.304;18.294;2023-07-16T11:02:14;4.22;;;2.10;;
76310;SDS011;65120;59.304;18.294;2023-07-16T11:04:42;5.95;;;1.60;;
76310;SDS011;65120;59.304;18.294;2023-07-16T11:07:10;3.15;;;1.50;;
76310;SDS011;65120;59.304;18.294;2023-07-16T11:09:43;5.15;;;1.70;;
76310;SDS011;65120;59.304;18.294;2023-07-16T11:12:13;3.13;;;1.48;;
76310;SDS011;65120;59.304;18.294;2023-07-16T11:14:42;2.47;;;1.35;;
76310;SDS011;65120;59.304;18.294;2023-07-16T11:17:10;2.70;;;1.50;;
76310;SDS011;65120;59.304;18.294;2023-07-16T11:19:38;4.07;;;1.13;;
76310;SDS011;65120;59.304;18.294;2023-07-16T11:22:08;9.45;;;1.30;;
76310;SDS011;65120;59.304;18.294;2023-07-16T11:24:36;2.35;;;0.90;;
76310;SDS011;65120;59.304;18.294;2023-07-16T11:27:06;1.50;;;0.85;;
76310;SDS011;65120;59.304;18.294;2023-07-16T11:29:38;2.97;;;1.15;;
76310;SDS011;65120;59.304;18.294;2023-07-16T11:32:07;3.30;;;1.13;;
76310;SDS011;65120;59.304;18.294;2023-07-16T11:34:34;2.35;;;0.77;;
76310;SDS011;65120;59.304;18.294;2023-07-16T11:37:08;2.97;;;1.33;;
76310;SDS011;65120;59.304;18.294;2023-07-16T11:39:37;4.05;;;1.33;;
76310;SDS011;65120;59.304;18.294;2023-07-16T11:42:06;4.70;;;1.10;;
76310;SDS011;65120;59.304;18.294;2023-07-16T11:44:33;3.00;;;1.23;;
76310;SDS011;65120;59.304;18.294;2023-07-16T11:47:01;2.05;;;0.90;;
76310;SDS011;65120;59.304;18.294;2023-07-16T11:49:29;2.53;;;1.00;;
76310;SDS011;65120;59.304;18.294;2023-07-16T11:51:56;5.55;;;1.13;;
76310;SDS011;65120;59.304;18.294;2023-07-16T11:54:24;1.55;;;0.98;;
76310;SDS011;65120;59.304;18.294;2023-07-16T11:56:50;1.73;;;1.02;;
76310;SDS011;65120;59.304;18.294;2023-07-16T11:59:19;2.25;;;0.93;;
76310;SDS011;65120;59.304;18.294;2023-07-16T12:01:47;2.72;;;1.30;;
76310;SDS011;65120;59.304;18.294;2023-07-16T12:04:15;2.78;;;0.93;;
76310;SDS011;65120;59.304;18.294;2023-07-16T12:06:42;4.72;;;0.88;;
76310;SDS011;65120;59.304;18.294;2023-07-16T12:09:09;1.17;;;0.82;;
76310;SDS011;65120;59.304;18.294;2023-07-16T12:11:36;2.80;;;0.68;;
76310;SDS011;65120;59.304;18.294;2023-07-16T12:14:04;1.23;;;0.80;;
76310;SDS011;65120;59.304;18.294;2023-07-16T12:16:33;4.22;;;0.73;;
76310;SDS011;65120;59.304;18.294;2023-07-16T12:19:00;2.08;;;0.90;;
76310;SDS011;65120;59.304;18.294;2023-07-16T12:21:27;2.47;;;0.70;;
76310;SDS011;65120;59.304;18.294;2023-07-16T12:23:53;1.50;;;0.82;;
76310;SDS011;65120;59.304;18.294;2023-07-16T12:26:20;0.82;;;0.60;;
76310;SDS011;65120;59.304;18.294;2023-07-16T12:28:47;1.75;;;0.65;;
76310;SDS011;65120;59.304;18.294;2023-07-16T12:31:14;1.42;;;0.45;;
76310;SDS011;65120;59.304;18.294;2023-07-16T12:33:44;1.35;;;0.50;;
76310;SDS011;65120;59.304;18.294;2023-07-16T12:36:10;2.92;;;0.52;;
76310;SDS011;65120;59.304;18.294;2023-07-16T12:38:37;3.10;;;0.60;;
76310;SDS011;65120;59.304;18.294;2023-07-16T12:41:04;1.55;;;0.50;;
76310;SDS011;65120;59.304;18.294;2023-07-16T12:43:31;1.67;;;0.52;;
76310;SDS011;65120;59.304;18.294;2023-07-16T12:45:59;1.10;;;0.43;;
76310;SDS011;65120;59.304;18.294;2023-07-16T12:48:27;1.20;;;0.50;;
76310;SDS011;65120;59.304;18.294;2023-07-16T12:50:56;1.73;;;0.88;;
76310;SDS011;65120;59.304;18.294;2023-07-16T12:53:24;1.45;;;0.45;;
76310;SDS011;65120;59.304;18.294;2023-07-16T12:55:51;2.65;;;0.50;;
76310;SDS011;65120;59.304;18.294;2023-07-16T12:58:18;1.13;;;0.60;;
76310;SDS011;65120;59.304;18.294;2023-07-16T13:00:45;1.50;;;0.60;;
76310;SDS011;65120;59.304;18.294;2023-07-16T13:03:12;2.15;;;0.43;;
76310;SDS011;65120;59.304;18.294;2023-07-16T13:05:41;2.53;;;0.47;;
76310;SDS011;65120;59.304;18.294;2023-07-16T13:08:11;1.10;;;0.40;;
76310;SDS011;65120;59.304;18.294;2023-07-16T13:10:38;2.83;;;0.47;;
76310;SDS011;65120;59.304;18.294;2023-07-16T13:13:06;1.13;;;0.47;;
76310;SDS011;65120;59.304;18.294;2023-07-16T13:15:33;1.13;;;0.50;;
76310;SDS011;65120;59.304;18.294;2023-07-16T13:18:00;1.42;;;0.60;;
76310;SDS011;65120;59.304;18.294;2023-07-16T13:20:27;0.88;;;0.50;;
76310;SDS011;65120;59.304;18.294;2023-07-16T13:22:55;0.95;;;0.50;;
76310;SDS011;65120;59.304;18.294;2023-07-16T13:25:23;1.20;;;0.40;;
76310;SDS011;65120;59.304;18.294;2023-07-16T13:27:50;2.15;;;1.10;;
76310;SDS011;65120;59.304;18.294;2023-07-16T13:30:18;6.25;;;0.70;;
76310;SDS011;65120;59.304;18.294;2023-07-16T13:32:45;0.80;;;0.63;;
76310;SDS011;65120;59.304;18.294;2023-07-16T13:35:13;1.13;;;0.55;;
76310;SDS011;65120;59.304;18.294;2023-07-16T13:37:41;3.60;;;0.60;;
76310;SDS011;65120;59.304;18.294;2023-07-16T13:40:08;1.55;;;0.70;;
76310;SDS011;65120;59.304;18.294;2023-07-16T13:42:36;1.00;;;0.65;;
76310;SDS011;65120;59.304;18.294;2023-07-16T13:45:04;2.33;;;0.70;;
76310;SDS011;65120;59.304;18.294;2023-07-16T13:47:32;2.05;;;1.27;;
76310;SDS011;65120;59.304;18.294;2023-07-16T13:49:59;1.85;;;0.50;;
76310;SDS011;65120;59.304;18.294;2023-07-16T13:52:25;0.77;;;0.60;;
76310;SDS011;65120;59.304;18.294;2023-07-16T13:54:52;2.92;;;1.17;;
76310;SDS011;65120;59.304;18.294;2023-07-16T13:57:19;1.77;;;0.60;;
76310;SDS011;65120;59.304;18.294;2023-07-16T13:59:48;2.13;;;0.70;;
76310;SDS011;65120;59.304;18.294;2023-07-16T14:02:15;3.63;;;0.90;;
76310;SDS011;65120;59.304;18.294;2023-07-16T14:04:41;2.88;;;0.80;;
76310;SDS011;65120;59.304;18.294;2023-07-16T14:07:09;3.75;;;1.13;;
76310;SDS011;65120;59.304;18.294;2023-07-16T14:09:36;1.58;;;0.60;;
76310;SDS011;65120;59.304;18.294;2023-07-16T14:12:03;3.47;;;0.50;;
76310;SDS011;65120;59.304;18.294;2023-07-16T14:14:30;2.05;;;0.50;;
76310;SDS011;65120;59.304;18.294;2023-07-16T14:16:58;2.05;;;0.60;;
76310;SDS011;65120;59.304;18.294;2023-07-16T14:19:25;1.42;;;0.47;;
76310;SDS011;65120;59.304;18.294;2023-07-16T14:21:52;2.75;;;0.65;;
76310;SDS011;65120;59.304;18.294;2023-07-16T14:24:19;1.02;;;0.50;;
76310;SDS011;65120;59.304;18.294;2023-07-16T14:26:46;0.60;;;0.40;;
76310;SDS011;65120;59.304;18.294;2023-07-16T14:29:14;1.17;;;0.40;;
76310;SDS011;65120;59.304;18.294;2023-07-16T14:31:41;3.72;;;0.57;;
76310;SDS011;65120;59.304;18.294;2023-07-16T14:34:09;2.90;;;0.50;;
76310;SDS011;65120;59.304;18.294;2023-07-16T14:36:36;1.85;;;0.40;;
76310;SDS011;65120;59.304;18.294;2023-07-16T14:39:03;0.80;;;0.60;;